createdAt,value
2022-11-03T05:02:56.681Z,10.30
2022-11-03T05:05:28.430Z,10.30
2022-11-03T05:08:00.057Z,10.30
2022-11-03T05:10:31.675Z,10.30
2022-11-03T05:13:03.499Z,10.30
2022-11-03T05:15:36.974Z,10.30
2022-11-03T05:18:15.744Z,10.30
2022-11-03T05:20:49.840Z,10.40
2022-11-03T05:23:21.607Z,10.40
2022-11-03T05:25:53.670Z,10.40
2022-11-03T05:28:27.118Z,10.40
2022-11-03T05:30:58.793Z,10.40
2022-11-03T05:33:33.846Z,10.50
2022-11-03T05:36:11.570Z,10.50
2022-11-03T05:38:43.249Z,10.60
2022-11-03T05:41:16.299Z,10.60
2022-11-03T05:43:52.648Z,10.70
2022-11-03T05:46:24.564Z,10.70
2022-11-03T05:48:57.622Z,10.80
2022-11-03T05:51:31.873Z,10.80
2022-11-03T05:54:04.635Z,10.80
2022-11-03T05:56:36.296Z,10.80
2022-11-03T05:59:10.556Z,10.80
2022-11-03T06:01:42.320Z,10.90
2022-11-03T06:04:19.157Z,10.90
2022-11-03T06:06:51.967Z,10.90
2022-11-03T06:09:24.387Z,11.00
2022-11-03T06:11:56.967Z,11.00
2022-11-03T06:14:30.110Z,11.00
2022-11-03T06:17:02.738Z,11.00
2022-11-03T06:19:37.267Z,11.00
2022-11-03T06:22:12.447Z,11.00
2022-11-03T06:24:44.136Z,11.00
2022-11-03T06:27:16.055Z,11.00
2022-11-03T06:29:49.780Z,11.00
2022-11-03T06:32:21.449Z,11.00
2022-11-03T06:34:55.039Z,11.00
2022-11-03T06:37:27.524Z,11.00
2022-11-03T06:40:00.619Z,11.00
2022-11-03T06:42:32.375Z,11.00
2022-11-03T06:45:12.178Z,11.00
2022-11-03T06:47:43.787Z,11.00
2022-11-03T06:50:22.136Z,11.00
2022-11-03T06:52:53.769Z,11.10
2022-11-03T06:55:26.458Z,11.10
2022-11-03T06:57:59.356Z,11.20
2022-11-03T07:00:35.720Z,11.10
2022-11-03T07:03:10.607Z,11.10
2022-11-03T07:05:43.560Z,11.10
2022-11-03T07:08:20.628Z,11.10
2022-11-03T07:10:56.855Z,11.10
2022-11-03T07:13:28.963Z,11.10
2022-11-03T07:16:00.545Z,11.10
2022-11-03T07:18:34.190Z,11.10
2022-11-03T07:21:15.669Z,11.10
2022-11-03T07:23:47.428Z,11.10
2022-11-03T07:26:19.085Z,11.10
2022-11-03T07:28:50.643Z,11.20
2022-11-03T07:31:23.640Z,11.30
2022-11-03T07:33:56.300Z,11.40
2022-11-03T07:36:29.245Z,11.50
2022-11-03T07:39:00.878Z,11.60
2022-11-03T07:41:34.403Z,11.90
2022-11-03T07:44:08.756Z,11.80
2022-11-03T07:46:40.342Z,11.90
2022-11-03T07:49:19.803Z,12.00
2022-11-03T07:51:52.756Z,12.10
2022-11-03T07:54:25.441Z,12.20
2022-11-03T07:56:58.334Z,12.30
2022-11-03T07:59:32.441Z,12.40
2022-11-03T08:02:13.184Z,12.50
2022-11-03T08:04:44.843Z,12.60
2022-11-03T08:07:17.894Z,12.70
2022-11-03T08:09:49.499Z,12.80
2022-11-03T08:12:21.168Z,12.90
2022-11-03T08:14:52.743Z,13.00
2022-11-03T08:17:24.382Z,13.10
2022-11-03T08:19:55.981Z,13.20
2022-11-03T08:22:28.939Z,13.20
2022-11-03T08:25:00.523Z,13.30
2022-11-03T08:27:32.136Z,13.40
2022-11-03T08:30:04.034Z,13.40
2022-11-03T08:32:35.647Z,13.50
2022-11-03T08:35:07.848Z,13.60
2022-11-03T08:37:40.779Z,13.60
2022-11-03T08:40:12.663Z,13.70
2022-11-03T08:42:44.311Z,13.70
2022-11-03T08:45:16.032Z,13.70
2022-11-03T08:47:47.632Z,13.70
2022-11-03T08:50:19.195Z,13.80
2022-11-03T08:52:52.139Z,13.80
2022-11-03T08:55:23.692Z,13.90
2022-11-03T08:57:55.273Z,14.00
2022-11-03T09:00:26.869Z,14.10
2022-11-03T09:02:58.443Z,14.20
2022-11-03T09:05:30.040Z,14.30
2022-11-03T09:10:54.610Z,14.50
2022-11-03T09:13:26.223Z,14.50
2022-11-03T09:15:57.828Z,14.50
2022-11-03T09:18:29.426Z,14.50
2022-11-03T09:21:01.021Z,14.50
2022-11-03T09:23:33.967Z,14.40
2022-11-03T09:26:05.745Z,14.40
2022-11-03T09:28:37.329Z,14.50
2022-11-03T09:31:08.931Z,14.50
2022-11-03T09:33:40.584Z,14.50
2022-11-03T09:36:12.216Z,14.50
2022-11-03T09:38:45.177Z,14.60
2022-11-03T09:41:26.428Z,14.50
2022-11-03T09:43:59.909Z,14.50
2022-11-03T09:46:31.500Z,14.60
2022-11-03T09:49:03.115Z,14.60
2022-11-03T09:51:35.539Z,14.60
2022-11-03T09:54:11.443Z,14.70
2022-11-03T09:56:43.228Z,14.70
2022-11-03T09:59:15.596Z,14.70
2022-11-03T10:01:47.906Z,14.70
2022-11-03T10:04:21.490Z,14.70
2022-11-03T10:06:53.197Z,14.70
2022-11-03T10:09:26.169Z,14.60
2022-11-03T10:11:57.773Z,14.60
2022-11-03T10:14:29.429Z,14.40
2022-11-03T10:17:01.084Z,14.40
2022-11-03T10:19:32.909Z,14.40
2022-11-03T10:22:04.564Z,14.40
2022-11-03T10:24:37.548Z,14.40
2022-11-03T10:27:20.496Z,14.40
2022-11-03T10:30:10.429Z,14.50
2022-11-03T10:32:42.133Z,14.50
2022-11-03T10:35:31.578Z,14.60
2022-11-03T10:38:20.200Z,14.60
2022-11-03T10:40:53.194Z,14.60
2022-11-03T10:43:24.879Z,14.60
2022-11-03T10:46:23.476Z,14.60
2022-11-03T10:49:02.716Z,14.70
2022-11-03T10:51:35.549Z,14.70
2022-11-03T10:54:11.306Z,14.70
2022-11-03T10:56:44.663Z,14.70
2022-11-03T10:59:17.362Z,14.70
2022-11-03T11:01:49.137Z,13.80
2022-11-03T11:04:21.041Z,14.50
2022-11-03T11:06:52.865Z,14.70
2022-11-03T11:09:25.351Z,14.90
2022-11-03T11:12:02.608Z,14.60
2022-11-03T11:14:36.132Z,14.40
2022-11-03T11:17:29.229Z,14.50
2022-11-03T11:20:28.786Z,14.60
2022-11-03T11:23:49.639Z,14.60
2022-11-03T11:26:31.779Z,14.70
2022-11-03T11:29:43.249Z,14.70
2022-11-03T11:32:51.283Z,14.70
2022-11-03T11:36:02.565Z,14.60
2022-11-03T11:39:07.791Z,14.80
2022-11-03T11:42:07.776Z,16.30
2022-11-03T11:44:53.127Z,14.90
2022-11-03T11:47:47.537Z,14.90
2022-11-03T11:50:23.876Z,14.90
2022-11-03T11:53:13.961Z,15.20
2022-11-03T11:55:51.097Z,14.80
2022-11-03T11:58:29.648Z,14.80
2022-11-03T12:01:01.852Z,14.70
2022-11-03T12:03:42.294Z,14.70
2022-11-03T12:06:14.103Z,14.80
2022-11-03T12:08:45.794Z,14.60
2022-11-03T12:11:45.707Z,14.90
2022-11-03T12:14:25.391Z,14.80
2022-11-03T12:16:57.208Z,14.20
2022-11-03T12:19:41.484Z,14.30
2022-11-03T12:22:33.885Z,14.30
2022-11-03T12:25:06.183Z,14.30
2022-11-03T12:27:42.857Z,14.30
2022-11-03T12:30:16.442Z,14.40
2022-11-03T12:32:48.113Z,14.40
2022-11-03T12:35:19.749Z,14.40
2022-11-03T12:37:51.390Z,14.40
2022-11-03T12:40:23.036Z,14.50
2022-11-03T12:42:56.045Z,14.50
2022-11-03T12:45:27.686Z,14.50
2022-11-03T12:47:59.364Z,14.60
2022-11-03T12:50:31.027Z,14.60
2022-11-03T12:53:02.781Z,14.60
2022-11-03T12:55:34.588Z,14.50
2022-11-03T12:58:07.936Z,14.50
2022-11-03T13:03:11.894Z,14.40
2022-11-03T13:05:43.533Z,14.40
2022-11-03T13:08:15.234Z,14.30
2022-11-03T13:10:46.917Z,14.30
2022-11-03T13:15:51.944Z,14.40
2022-11-03T13:18:23.593Z,14.30
2022-11-03T13:20:55.240Z,14.40
2022-11-03T13:23:26.985Z,14.40
2022-11-03T13:25:58.714Z,14.50
2022-11-03T13:28:31.788Z,14.50
2022-11-03T13:31:03.440Z,14.60
2022-11-03T13:33:35.124Z,14.60
2022-11-03T13:36:07.674Z,14.60
2022-11-03T13:38:39.503Z,14.50
2022-11-03T13:41:11.160Z,14.50
2022-11-03T13:43:44.163Z,14.50
2022-11-03T13:46:15.818Z,14.60
2022-11-03T13:51:39.109Z,14.60
2022-11-03T13:59:56.177Z,14.30
2022-11-03T14:05:20.292Z,14.10
2022-11-03T14:07:51.947Z,14.10
2022-11-03T14:10:23.641Z,14.10
2022-11-03T14:12:55.420Z,14.10
2022-11-03T14:15:28.404Z,14.10
2022-11-03T14:18:00.090Z,14.10
2022-11-03T14:20:31.716Z,14.10
2022-11-03T14:23:03.582Z,14.30
2022-11-03T14:25:35.463Z,14.10
2022-11-03T14:28:07.252Z,14.00
2022-11-03T14:30:40.322Z,14.00
2022-11-03T14:33:12.365Z,13.90
2022-11-03T14:35:44.244Z,13.90
2022-11-03T14:38:15.898Z,13.70
2022-11-03T14:40:47.567Z,13.90
2022-11-03T14:43:19.257Z,13.70
2022-11-03T14:45:52.295Z,13.70
2022-11-03T14:48:24.031Z,13.70
2022-11-03T14:50:55.685Z,13.50
2022-11-03T14:53:27.359Z,13.40
2022-11-03T14:55:59.104Z,13.20
2022-11-03T14:58:30.777Z,13.10
2022-11-03T15:01:03.815Z,12.90
2022-11-03T15:03:35.502Z,12.80
2022-11-03T15:06:07.283Z,12.70
2022-11-03T15:08:39.005Z,12.60
2022-11-03T15:11:10.699Z,12.60
2022-11-03T15:13:46.022Z,12.40
2022-11-03T15:16:21.621Z,12.40
2022-11-03T15:18:53.277Z,12.40
2022-11-03T15:21:24.965Z,12.30
2022-11-03T15:26:48.239Z,12.10
2022-11-03T15:29:19.879Z,11.90
2022-11-03T15:31:52.898Z,11.80
2022-11-03T15:34:24.599Z,11.70
2022-11-03T15:36:56.264Z,11.50
2022-11-03T15:39:27.893Z,11.50
2022-11-03T15:41:59.691Z,11.40
2022-11-03T15:44:31.379Z,11.40
2022-11-03T15:47:04.446Z,11.40
2022-11-03T15:49:36.083Z,11.30
2022-11-03T15:52:07.784Z,11.40
2022-11-03T15:54:42.411Z,11.40
2022-11-03T15:59:45.990Z,11.30
2022-11-03T16:02:40.143Z,11.40
2022-11-03T16:05:10.644Z,11.40
2022-11-03T16:07:42.343Z,11.40
2022-11-03T16:10:14.119Z,11.40
2022-11-03T16:12:45.778Z,11.40
2022-11-03T16:15:17.470Z,11.40
2022-11-03T16:17:50.491Z,11.30
2022-11-03T16:20:22.141Z,11.30
2022-11-03T16:22:53.828Z,11.30
2022-11-03T16:25:25.497Z,11.20
2022-11-03T16:27:57.162Z,11.30
2022-11-03T16:30:28.830Z,11.30
2022-11-03T16:33:01.870Z,11.30
2022-11-03T16:35:33.579Z,11.20
2022-11-03T16:38:05.524Z,11.30
2022-11-03T16:40:37.369Z,11.30
2022-11-03T16:43:09.042Z,11.30
2022-11-03T16:45:40.695Z,11.30
2022-11-03T16:48:13.708Z,12.20
2022-11-03T16:50:45.380Z,11.40
2022-11-03T16:53:17.040Z,11.40
2022-11-03T16:55:48.696Z,11.40
2022-11-03T16:58:20.366Z,11.30
2022-11-03T17:00:52.099Z,11.30
2022-11-03T17:03:25.146Z,11.40
2022-11-03T17:05:56.766Z,11.40
2022-11-03T17:11:20.050Z,11.50
2022-11-03T17:13:51.925Z,11.50
2022-11-03T17:16:24.179Z,11.50
2022-11-03T17:18:57.684Z,11.50
2022-11-03T17:21:29.668Z,11.60
2022-11-03T17:24:01.484Z,11.60
2022-11-03T17:26:39.011Z,11.70
2022-11-03T17:29:15.332Z,11.70
2022-11-03T17:31:47.534Z,11.80
2022-11-03T17:34:22.580Z,11.70
2022-11-03T17:36:54.652Z,11.70
2022-11-03T17:39:28.237Z,11.80
2022-11-03T17:42:12.034Z,11.80
2022-11-03T17:44:44.504Z,11.80
2022-11-03T17:47:16.942Z,11.70
2022-11-03T17:49:50.441Z,11.70
2022-11-03T17:52:26.804Z,11.80
2022-11-03T17:55:00.447Z,11.90
2022-11-03T17:57:32.399Z,11.80
2022-11-03T18:00:04.879Z,11.70
2022-11-03T18:02:36.636Z,11.80
2022-11-03T18:05:22.146Z,11.90
2022-11-03T18:07:54.105Z,11.80
2022-11-03T18:10:26.767Z,11.90
2022-11-03T18:13:00.283Z,11.90
2022-11-03T18:15:32.572Z,12.10
2022-11-03T18:18:13.381Z,11.90
2022-11-03T18:20:52.829Z,12.00
2022-11-03T18:23:25.786Z,12.10
2022-11-03T18:25:57.423Z,12.10
2022-11-03T18:28:29.114Z,12.00
2022-11-03T18:31:00.828Z,11.90
2022-11-03T18:33:33.601Z,12.00
2022-11-03T18:36:07.312Z,11.90
2022-11-03T18:38:38.970Z,12.00
2022-11-03T18:41:12.672Z,12.00
2022-11-03T18:43:44.866Z,12.00
2022-11-03T18:46:16.479Z,12.10
2022-11-03T18:48:48.150Z,12.10
2022-11-03T18:51:21.109Z,12.10
2022-11-03T18:53:52.770Z,12.10
2022-11-03T18:56:24.455Z,12.10
2022-11-03T18:58:56.738Z,12.10
2022-11-03T19:01:28.606Z,12.20
2022-11-03T19:04:00.356Z,12.20
2022-11-03T19:06:33.338Z,12.30
2022-11-03T19:09:05.002Z,12.20
2022-11-03T19:11:36.637Z,12.40
2022-11-03T19:14:09.471Z,12.00
2022-11-03T19:16:50.228Z,13.00
2022-11-03T19:19:32.809Z,12.10
2022-11-03T19:22:10.580Z,12.10
2022-11-03T19:24:42.283Z,11.90
2022-11-03T19:27:15.106Z,11.90
2022-11-03T19:29:46.772Z,11.80
2022-11-03T19:32:20.272Z,11.80
2022-11-03T19:34:54.147Z,11.70
2022-11-03T19:37:32.420Z,11.70
2022-11-03T19:40:08.125Z,11.70
2022-11-03T19:42:39.837Z,11.70
2022-11-03T19:45:13.475Z,11.70
2022-11-03T19:48:10.668Z,11.70
2022-11-03T19:50:37.986Z,11.70
2022-11-03T19:53:13.987Z,11.70
2022-11-03T19:55:45.646Z,11.70
2022-11-03T19:58:18.577Z,11.70
2022-11-03T20:00:50.522Z,11.80
2022-11-03T20:03:22.389Z,11.80
2022-11-03T20:05:54.974Z,11.70
2022-11-03T20:08:29.064Z,11.70
2022-11-03T20:11:01.013Z,11.70
2022-11-03T20:13:36.947Z,11.70
2022-11-03T20:16:12.346Z,11.70
2022-11-03T20:18:44.167Z,11.70
2022-11-03T20:21:16.155Z,11.70
2022-11-03T20:23:49.259Z,11.70
2022-11-03T20:26:21.964Z,11.80
2022-11-03T20:28:53.793Z,11.70
2022-11-03T20:31:25.490Z,11.60
2022-11-03T20:33:57.160Z,11.60
2022-11-03T20:36:29.850Z,11.70
2022-11-03T20:39:02.872Z,11.60
2022-11-03T20:41:34.493Z,11.60
2022-11-03T20:44:06.131Z,11.70
2022-11-03T20:46:37.772Z,11.60
2022-11-03T20:49:12.418Z,11.80
2022-11-03T20:51:45.059Z,11.60
2022-11-03T20:54:18.973Z,11.50
2022-11-03T20:56:50.615Z,11.50
2022-11-03T20:59:22.300Z,11.60
2022-11-03T21:01:54.052Z,11.60
2022-11-03T21:04:25.845Z,11.90
2022-11-03T21:06:57.525Z,11.60
2022-11-03T21:09:30.531Z,11.60
2022-11-03T21:12:02.219Z,11.60
2022-11-03T21:14:33.860Z,11.70
2022-11-03T21:17:06.117Z,11.60
2022-11-03T21:19:37.907Z,11.60
2022-11-03T21:22:30.970Z,11.70
2022-11-03T21:25:11.384Z,11.70
2022-11-03T21:27:43.021Z,11.60
2022-11-03T21:30:15.094Z,11.70
2022-11-03T21:32:46.827Z,11.70
2022-11-03T21:35:19.148Z,11.70
2022-11-03T21:37:50.855Z,11.70
2022-11-03T21:40:23.842Z,11.70
2022-11-03T21:42:55.467Z,11.70
2022-11-03T21:45:27.111Z,11.90
2022-11-03T21:47:58.773Z,11.70
2022-11-03T21:50:30.400Z,11.80
2022-11-03T21:53:02.065Z,11.70
2022-11-03T21:55:35.138Z,11.80
2022-11-03T21:58:06.907Z,11.80
2022-11-03T22:00:38.552Z,11.70
2022-11-03T22:03:10.622Z,12.50
2022-11-03T22:05:42.702Z,11.70
2022-11-03T22:08:14.529Z,11.70
2022-11-03T22:10:47.751Z,11.70
2022-11-03T22:13:19.422Z,11.70
2022-11-03T22:15:51.062Z,11.70
2022-11-03T22:18:23.347Z,11.70
2022-11-03T22:20:57.459Z,11.70
2022-11-03T22:23:30.781Z,11.70
2022-11-03T22:26:08.809Z,11.70
2022-11-03T22:28:40.510Z,11.70
2022-11-03T22:31:12.173Z,11.70
2022-11-03T22:33:43.997Z,11.70
2022-11-03T22:36:21.311Z,11.70
2022-11-03T22:38:53.850Z,11.70
2022-11-03T22:41:26.893Z,11.70
2022-11-03T22:43:58.570Z,11.70
2022-11-03T22:46:30.395Z,11.90
2022-11-03T22:49:02.077Z,11.70
2022-11-03T22:51:33.836Z,11.70
2022-11-03T22:54:05.670Z,11.70
2022-11-03T22:56:38.924Z,11.70
2022-11-03T22:59:11.073Z,11.70
